createdAt,value
2023-02-19T00:00:24.228Z,100894.13
2023-02-19T00:02:53.758Z,100881.09
2023-02-19T00:05:22.143Z,100872.38
2023-02-19T00:07:50.376Z,100893.25
2023-02-19T00:10:18.658Z,100889.91
2023-02-19T00:12:47.260Z,100898.44
2023-02-19T00:15:15.503Z,100889.75
2023-02-19T00:17:43.655Z,100891.53
2023-02-19T00:20:14.380Z,100899.38
2023-02-19T00:22:42.588Z,100898.69
2023-02-19T00:25:10.639Z,100892.59
2023-02-19T00:27:38.952Z,100888.25
2023-02-19T00:30:07.967Z,100897.63
2023-02-19T00:32:36.241Z,100900.19
2023-02-19T00:35:04.538Z,100893.25
2023-02-19T00:37:34.569Z,100898.44
2023-02-19T00:40:03.024Z,100894.75
2023-02-19T00:42:31.519Z,100882.38
2023-02-19T00:44:59.998Z,100901.75
2023-02-19T00:47:28.234Z,100900.03
2023-02-19T00:49:56.575Z,100902.72
2023-02-19T00:52:24.741Z,100901.00
2023-02-19T00:54:54.338Z,100900.09
2023-02-19T00:57:22.809Z,100893.03
2023-02-19T00:59:51.077Z,100885.88
2023-02-19T01:02:20.081Z,100913.75
2023-02-19T01:04:48.485Z,100891.03
2023-02-19T01:07:16.822Z,100906.81
2023-02-19T01:09:45.025Z,100912.19
2023-02-19T01:12:15.006Z,100901.59
2023-02-19T01:14:43.322Z,100912.09
2023-02-19T01:17:11.960Z,100898.03
2023-02-19T01:19:40.292Z,100899.69
2023-02-19T01:22:08.627Z,100897.88
2023-02-19T01:24:37.287Z,100908.34
2023-02-19T01:27:05.615Z,100906.53
2023-02-19T01:29:35.385Z,100889.19
2023-02-19T01:32:03.623Z,100905.84
2023-02-19T01:34:33.552Z,100908.47
2023-02-19T01:37:02.236Z,100906.59
2023-02-19T01:39:30.372Z,100896.03
2023-02-19T01:41:58.892Z,100911.69
2023-02-19T01:45:03.914Z,100927.16
2023-02-19T01:47:34.185Z,100928.16
2023-02-19T01:50:02.373Z,100920.31
2023-02-19T01:52:33.383Z,100906.44
2023-02-19T01:55:04.059Z,100899.22
2023-02-19T01:57:35.169Z,100915.03
2023-02-19T02:00:07.372Z,100920.91
2023-02-19T02:02:37.552Z,100921.78
2023-02-19T02:05:09.184Z,100925.28
2023-02-19T02:07:54.982Z,100913.00
2023-02-19T02:10:23.239Z,100895.47
2023-02-19T02:12:52.834Z,100916.81
2023-02-19T02:15:22.452Z,100917.53
2023-02-19T02:17:58.140Z,100930.00
2023-02-19T02:20:37.370Z,100921.31
2023-02-19T02:23:15.671Z,100936.91
2023-02-19T02:26:18.445Z,100928.06
2023-02-19T02:29:24.277Z,100929.72
2023-02-19T02:31:58.492Z,100947.41
2023-02-19T02:34:31.278Z,100942.25
2023-02-19T02:37:00.800Z,100944.13
2023-02-19T02:39:32.454Z,100947.28
2023-02-19T02:42:18.012Z,100930.50
2023-02-19T02:45:06.829Z,100954.16
2023-02-19T02:47:44.855Z,100952.50
2023-02-19T02:50:17.759Z,100948.50
2023-02-19T02:53:06.784Z,100944.81
2023-02-19T02:55:40.662Z,100962.22
2023-02-19T02:58:10.537Z,100910.94
2023-02-19T03:01:00.002Z,100966.72
2023-02-19T03:03:33.120Z,100969.41
2023-02-19T03:06:06.612Z,100956.06
2023-02-19T03:08:39.799Z,100966.56
2023-02-19T03:11:28.647Z,100979.97
2023-02-19T03:14:21.111Z,100981.00
2023-02-19T03:17:09.195Z,100985.31
2023-02-19T03:19:43.213Z,100971.31
2023-02-19T03:22:15.776Z,100988.91
2023-02-19T03:25:08.500Z,100990.63
2023-02-19T03:27:40.434Z,101002.94
2023-02-19T03:30:14.004Z,101002.94
2023-02-19T03:32:47.890Z,100973.13
2023-02-19T03:35:20.443Z,101001.38
2023-02-19T03:37:55.946Z,101006.28
2023-02-19T03:40:27.452Z,101002.69
2023-02-19T03:43:02.052Z,100999.06
2023-02-19T03:45:37.839Z,100968.69
2023-02-19T03:48:26.595Z,100977.88
2023-02-19T03:51:06.392Z,100998.69
2023-02-19T03:53:40.563Z,101020.03
2023-02-19T03:56:13.715Z,101019.28
2023-02-19T03:58:50.534Z,101017.75
2023-02-19T04:01:22.459Z,101026.22
2023-02-19T04:03:55.546Z,101000.53
2023-02-19T04:06:29.715Z,100981.09
2023-02-19T04:09:01.042Z,101019.31
2023-02-19T04:11:31.748Z,101026.38
2023-02-19T04:14:05.724Z,101025.56
2023-02-19T04:16:37.484Z,101015.88
2023-02-19T04:19:10.964Z,101035.09
2023-02-19T04:21:42.126Z,101026.50
2023-02-19T04:24:15.450Z,101047.72
2023-02-19T04:26:45.511Z,101041.41
2023-02-19T04:29:16.375Z,101040.75
2023-02-19T04:31:44.850Z,101046.34
2023-02-19T04:34:13.042Z,101054.53
2023-02-19T04:36:42.892Z,101069.00
2023-02-19T04:39:11.165Z,101068.28
2023-02-19T04:41:39.254Z,101061.06
2023-02-19T04:44:07.747Z,101070.06
2023-02-19T04:46:36.203Z,101052.25
2023-02-19T04:49:05.017Z,101075.78
2023-02-19T04:51:33.571Z,101052.44
2023-02-19T04:54:03.265Z,101081.34
2023-02-19T04:56:31.681Z,101073.41
2023-02-19T04:59:00.131Z,101087.00
2023-02-19T05:01:28.366Z,101080.47
2023-02-19T05:03:56.724Z,101085.38
2023-02-19T05:06:25.378Z,101094.25
2023-02-19T05:08:53.720Z,101098.59
2023-02-19T05:11:24.156Z,101100.84
2023-02-19T05:13:52.441Z,101100.22
2023-02-19T05:16:20.639Z,101083.22
2023-02-19T05:18:48.850Z,101088.53
2023-02-19T05:21:18.027Z,101109.75
2023-02-19T05:23:46.634Z,101108.13
2023-02-19T05:26:18.044Z,101101.22
2023-02-19T05:28:49.121Z,101104.63
2023-02-19T05:31:17.791Z,101104.53
2023-02-19T05:33:50.398Z,101112.34
2023-02-19T05:36:20.273Z,101123.84
2023-02-19T05:38:49.155Z,101120.38
2023-02-19T05:41:19.307Z,101116.78
2023-02-19T05:43:50.838Z,101082.00
2023-02-19T05:46:21.618Z,101119.34
2023-02-19T05:48:50.861Z,101133.63
2023-02-19T05:51:21.349Z,101141.50
2023-02-19T05:53:51.491Z,101151.13
2023-02-19T05:56:28.639Z,101145.22
2023-02-19T05:58:58.921Z,101128.56
2023-02-19T06:01:29.210Z,101147.25
2023-02-19T06:03:58.211Z,101111.66
2023-02-19T06:06:27.916Z,101164.19
2023-02-19T06:08:56.520Z,101143.97
2023-02-19T06:11:25.774Z,101152.94
2023-02-19T06:13:54.084Z,101146.41
2023-02-19T06:16:23.965Z,101154.63
2023-02-19T06:18:52.631Z,101134.97
2023-02-19T06:21:21.390Z,101170.25
2023-02-19T06:23:49.973Z,101167.69
2023-02-19T06:26:21.277Z,101179.19
2023-02-19T06:28:51.294Z,101173.63
2023-02-19T06:31:21.468Z,101170.22
2023-02-19T06:33:51.826Z,101146.94
2023-02-19T06:36:22.749Z,101185.84
2023-02-19T06:38:51.337Z,101186.94
2023-02-19T06:41:20.717Z,101184.19
2023-02-19T06:43:48.993Z,101184.13
2023-02-19T06:46:17.433Z,101190.41
2023-02-19T06:48:46.881Z,101186.09
2023-02-19T06:51:22.953Z,101178.22
2023-02-19T06:53:51.826Z,101184.13
2023-02-19T06:56:26.610Z,101187.72
2023-02-19T06:58:55.926Z,101198.16
2023-02-19T07:01:25.140Z,101199.88
2023-02-19T07:03:54.121Z,101178.94
2023-02-19T07:06:25.396Z,101200.81
2023-02-19T07:08:55.878Z,101194.84
2023-02-19T07:11:24.987Z,101197.59
2023-02-19T07:13:56.823Z,101200.66
2023-02-19T07:16:25.686Z,101213.44
2023-02-19T07:18:54.010Z,101178.31
2023-02-19T07:21:23.894Z,101222.69
2023-02-19T07:23:52.003Z,101219.91
2023-02-19T07:26:21.998Z,101204.13
2023-02-19T07:28:52.523Z,101221.69
2023-02-19T07:31:22.192Z,101229.59
2023-02-19T07:33:50.659Z,101212.47
2023-02-19T07:36:20.171Z,101221.09
2023-02-19T07:38:56.113Z,101233.34
2023-02-19T07:41:25.339Z,101237.16
2023-02-19T07:43:55.063Z,101240.53
2023-02-19T07:46:24.027Z,101227.03
2023-02-19T07:48:52.458Z,101225.66
2023-02-19T07:51:21.402Z,101220.53
2023-02-19T07:53:51.553Z,101218.94
2023-02-19T07:56:21.198Z,101222.63
2023-02-19T07:58:49.791Z,101214.53
2023-02-19T08:01:44.598Z,101241.06
2023-02-19T08:04:14.312Z,101247.63
2023-02-19T08:06:44.436Z,101255.59
2023-02-19T08:09:14.669Z,101232.66
2023-02-19T08:12:00.274Z,101259.25
2023-02-19T08:14:29.628Z,101252.06
2023-02-19T08:16:58.264Z,101224.13
2023-02-19T08:19:26.552Z,101254.38
2023-02-19T08:21:55.456Z,101253.25
2023-02-19T08:24:25.293Z,101262.81
2023-02-19T08:26:54.106Z,101203.75
2023-02-19T08:29:22.543Z,101268.19
2023-02-19T08:31:50.887Z,101263.03
2023-02-19T08:34:19.655Z,101266.56
2023-02-19T08:36:48.606Z,101277.00
2023-02-19T08:39:18.433Z,101275.47
2023-02-19T08:41:50.799Z,101284.13
2023-02-19T08:44:20.366Z,101277.53
2023-02-19T08:46:49.389Z,101277.53
2023-02-19T08:49:18.216Z,101283.06
2023-02-19T08:51:46.826Z,101281.34
2023-02-19T08:54:14.969Z,101288.53
2023-02-19T08:56:44.283Z,101290.28
2023-02-19T08:59:14.113Z,101296.53
2023-02-19T09:01:42.188Z,101281.94
2023-02-19T09:04:13.568Z,101297.69
2023-02-19T09:06:42.043Z,101293.25
2023-02-19T09:09:10.317Z,101295.56
2023-02-19T09:11:40.516Z,101295.88
2023-02-19T09:14:08.915Z,101288.88
2023-02-19T09:16:38.629Z,101295.91
2023-02-19T09:19:06.770Z,101280.25
2023-02-19T09:21:34.885Z,101299.75
2023-02-19T09:24:03.082Z,101305.63
2023-02-19T09:26:31.423Z,101307.44
2023-02-19T09:28:59.692Z,101304.75
2023-02-19T09:31:28.000Z,101306.72
2023-02-19T09:33:57.748Z,101315.53
2023-02-19T09:36:26.025Z,101317.44
2023-02-19T09:38:54.792Z,101310.38
2023-02-19T09:41:29.593Z,101308.63
2023-02-19T09:43:59.688Z,101268.63
2023-02-19T09:46:33.199Z,101314.00
2023-02-19T09:49:08.126Z,101316.59
2023-02-19T09:51:39.254Z,101321.25
2023-02-19T09:54:14.119Z,101320.53
2023-02-19T09:56:42.497Z,101310.72
2023-02-19T09:59:21.299Z,101327.06
2023-02-19T10:01:53.748Z,101338.75
2023-02-19T10:04:23.561Z,101305.84
2023-02-19T10:06:52.811Z,101327.69
2023-02-19T10:09:26.956Z,101333.56
2023-02-19T10:11:56.761Z,101345.75
2023-02-19T10:14:35.604Z,101332.91
2023-02-19T10:17:07.600Z,101341.63
2023-02-19T10:19:38.269Z,101338.75
2023-02-19T10:22:06.790Z,101345.34
2023-02-19T10:24:37.494Z,101334.72
2023-02-19T10:27:12.410Z,101326.88
2023-02-19T10:29:41.239Z,101350.56
2023-02-19T10:35:54.389Z,101339.41
2023-02-19T10:38:28.383Z,101348.19
2023-02-19T10:41:06.100Z,101342.88
2023-02-19T10:43:40.991Z,101339.63
2023-02-19T10:46:18.643Z,101351.84
2023-02-19T10:48:53.301Z,101346.06
2023-02-19T10:51:33.035Z,101340.56
2023-02-19T10:54:11.100Z,101346.16
2023-02-19T10:56:42.339Z,101331.31
2023-02-19T10:59:27.145Z,101341.03
2023-02-19T11:01:58.774Z,101352.59
2023-02-19T11:04:35.189Z,101346.06
2023-02-19T11:07:12.841Z,101350.03
2023-02-19T11:09:48.368Z,101342.88
2023-02-19T11:12:26.532Z,101344.50
2023-02-19T11:14:56.042Z,101343.78
2023-02-19T11:17:26.887Z,101336.78
2023-02-19T11:19:57.200Z,101337.66
2023-02-19T11:22:35.067Z,101326.16
2023-02-19T11:25:11.645Z,101328.69
2023-02-19T11:27:55.821Z,101348.06
2023-02-19T11:30:39.472Z,101295.72
2023-02-19T11:33:29.243Z,101339.03
2023-02-19T11:36:18.103Z,101344.44
2023-02-19T11:38:48.434Z,101347.78
2023-02-19T11:41:24.854Z,101351.09
2023-02-19T11:44:13.099Z,101347.72
2023-02-19T11:46:51.685Z,101348.53
2023-02-19T11:49:33.589Z,101359.41
2023-02-19T11:52:30.783Z,101342.19
2023-02-19T11:55:13.091Z,101347.13
2023-02-19T11:57:48.431Z,101338.31
2023-02-19T12:00:28.507Z,101338.66
2023-02-19T12:03:17.013Z,101335.25
2023-02-19T12:06:21.454Z,101339.22
2023-02-19T12:09:06.475Z,101323.81
2023-02-19T12:12:03.166Z,101322.16
2023-02-19T12:14:59.424Z,101306.97
2023-02-19T12:17:52.963Z,101308.41
2023-02-19T12:20:32.925Z,101310.31
2023-02-19T12:23:18.656Z,101310.38
2023-02-19T12:25:57.097Z,101318.56
2023-02-19T12:28:41.273Z,101280.75
2023-02-19T12:31:35.322Z,101304.38
2023-02-19T12:34:41.604Z,101282.94
2023-02-19T12:37:24.609Z,101300.72
2023-02-19T12:40:04.333Z,101302.72
2023-02-19T12:42:46.872Z,101305.03
2023-02-19T12:45:24.949Z,101306.75
2023-02-19T12:48:04.658Z,101303.19
2023-02-19T12:50:36.561Z,101282.25
2023-02-19T12:53:14.223Z,101280.84
2023-02-19T12:55:47.244Z,101277.66
2023-02-19T12:58:32.882Z,101277.75
2023-02-19T13:01:02.728Z,101270.84
2023-02-19T13:03:39.491Z,101267.47
2023-02-19T13:06:16.179Z,101262.22
2023-02-19T13:09:05.349Z,101247.78
2023-02-19T13:11:41.414Z,101246.59
2023-02-19T13:14:22.594Z,101226.28
2023-02-19T13:16:59.282Z,101234.91
2023-02-19T13:19:27.696Z,101237.13
2023-02-19T13:22:21.665Z,101231.25
2023-02-19T13:24:54.862Z,101237.31
2023-02-19T13:27:41.835Z,101235.72
2023-02-19T13:30:26.526Z,101227.19
2023-02-19T13:33:05.049Z,101234.44
2023-02-19T13:36:06.609Z,101224.63
2023-02-19T13:38:43.377Z,101220.22
2023-02-19T13:41:30.740Z,101213.38
2023-02-19T13:44:03.183Z,101202.91
2023-02-19T13:46:41.076Z,101199.63
2023-02-19T13:49:41.880Z,101199.88
2023-02-19T13:52:45.092Z,101195.72
2023-02-19T13:55:52.812Z,101187.66
2023-02-19T13:59:05.862Z,101147.34
2023-02-19T14:02:13.879Z,101188.66
2023-02-19T14:04:50.394Z,101184.31
2023-02-19T14:07:51.065Z,101168.78
2023-02-19T14:11:02.581Z,101171.38
2023-02-19T14:14:12.235Z,101172.31
2023-02-19T14:17:01.658Z,101156.53
2023-02-19T14:20:08.018Z,101157.38
2023-02-19T14:23:05.069Z,101158.47
2023-02-19T14:25:52.878Z,101153.22
2023-02-19T14:28:28.538Z,101143.34
2023-02-19T14:31:01.525Z,101157.47
2023-02-19T14:33:32.893Z,101159.94
2023-02-19T14:36:09.508Z,101170.56
2023-02-19T14:38:43.665Z,101170.69
2023-02-19T14:41:14.367Z,101177.53
2023-02-19T14:43:44.327Z,101186.56
2023-02-19T14:46:20.930Z,101153.97
2023-02-19T14:48:51.180Z,101161.78
2023-02-19T14:51:32.007Z,101160.28
2023-02-19T14:54:06.262Z,101186.25
2023-02-19T14:56:36.816Z,101154.75
2023-02-19T14:59:10.942Z,101181.28
2023-02-19T15:01:42.383Z,101169.16
2023-02-19T15:04:27.165Z,101170.94
2023-02-19T15:06:58.864Z,101149.75
2023-02-19T15:09:34.878Z,101157.75
2023-02-19T15:12:04.105Z,101151.56
2023-02-19T15:14:34.194Z,101152.56
2023-02-19T15:17:06.678Z,101146.31
2023-02-19T15:19:39.703Z,101149.72
2023-02-19T15:22:13.612Z,101157.00
2023-02-19T15:24:48.499Z,101147.47
2023-02-19T15:27:24.410Z,101152.56
2023-02-19T15:29:54.686Z,101137.53
2023-02-19T15:32:26.387Z,101145.66
2023-02-19T15:34:56.312Z,101132.38
2023-02-19T15:37:27.269Z,101149.94
2023-02-19T15:39:57.117Z,101147.25
2023-02-19T15:42:29.235Z,101147.41
2023-02-19T15:45:02.388Z,101148.38
2023-02-19T15:47:39.752Z,101169.34
2023-02-19T15:50:14.310Z,101163.16
2023-02-19T15:52:53.511Z,101158.84
2023-02-19T15:55:39.826Z,101157.16
2023-02-19T15:58:16.799Z,101137.75
2023-02-19T16:00:49.914Z,101146.59
2023-02-19T16:03:21.493Z,101114.06
2023-02-19T16:06:00.529Z,101141.25
2023-02-19T16:08:32.916Z,101150.78
2023-02-19T16:11:03.135Z,101151.66
2023-02-19T16:13:33.611Z,101155.47
2023-02-19T16:16:07.834Z,101135.13
2023-02-19T16:18:37.343Z,101150.00
2023-02-19T16:21:10.608Z,101152.72
2023-02-19T16:23:45.361Z,101166.00
2023-02-19T16:26:13.841Z,101148.44
2023-02-19T16:28:43.650Z,101148.19
2023-02-19T16:31:15.092Z,101146.38
2023-02-19T16:33:46.485Z,101109.75
2023-02-19T16:36:20.684Z,101139.88
2023-02-19T16:39:19.470Z,101141.69
2023-02-19T16:42:18.136Z,101140.66
2023-02-19T16:44:47.686Z,101136.22
2023-02-19T16:47:32.114Z,101139.66
2023-02-19T16:50:08.481Z,101130.13
2023-02-19T16:52:39.567Z,101141.25
2023-02-19T16:55:14.945Z,101123.97
2023-02-19T16:57:43.352Z,101125.63
2023-02-19T17:00:19.192Z,101109.88
2023-02-19T17:02:49.224Z,101110.06
2023-02-19T17:05:18.868Z,101106.53
2023-02-19T17:07:48.113Z,101108.38
2023-02-19T17:10:20.602Z,101092.53
2023-02-19T17:12:49.192Z,101109.19
2023-02-19T17:15:18.482Z,101105.59
2023-02-19T17:17:50.173Z,101098.59
2023-02-19T17:20:27.474Z,101101.31
2023-02-19T17:22:56.164Z,101083.69
2023-02-19T17:25:26.240Z,101112.53
2023-02-19T17:27:54.472Z,101096.03
2023-02-19T17:30:29.407Z,101097.78
2023-02-19T17:32:57.676Z,101105.78
2023-02-19T17:35:26.459Z,101115.22
2023-02-19T17:37:54.793Z,101101.09
2023-02-19T17:40:33.142Z,101115.13
2023-02-19T17:43:02.505Z,101108.25
2023-02-19T17:45:30.677Z,101102.94
2023-02-19T17:47:58.907Z,101099.47
2023-02-19T17:50:29.882Z,101097.63
2023-02-19T17:52:58.373Z,101095.94
2023-02-19T17:55:28.532Z,101085.59
2023-02-19T17:57:56.819Z,101082.19
2023-02-19T18:00:27.074Z,101073.41
2023-02-19T18:02:56.252Z,101082.16
2023-02-19T18:05:25.217Z,101080.34
2023-02-19T18:07:54.332Z,101073.25
2023-02-19T18:10:26.380Z,101082.03
2023-02-19T18:12:56.502Z,101074.91
2023-02-19T18:15:27.661Z,101064.31
2023-02-19T18:18:00.134Z,101062.69
2023-02-19T18:20:33.417Z,101067.97
2023-02-19T18:23:01.642Z,101071.50
2023-02-19T18:25:30.481Z,101078.31
2023-02-19T18:28:01.850Z,101035.94
2023-02-19T18:30:30.396Z,101048.47
2023-02-19T18:32:59.523Z,101084.59
2023-02-19T18:35:27.678Z,101090.59
2023-02-19T18:37:56.170Z,101075.00
2023-02-19T18:40:26.691Z,101105.63
2023-02-19T18:42:57.952Z,101100.06
2023-02-19T18:45:29.750Z,101104.44
2023-02-19T18:47:57.855Z,101099.91
2023-02-19T18:50:28.057Z,101109.47
2023-02-19T18:52:56.724Z,101072.69
2023-02-19T18:55:25.755Z,101092.22
2023-02-19T18:57:54.770Z,101094.03
2023-02-19T19:00:26.734Z,101098.44
2023-02-19T19:03:02.772Z,101103.75
2023-02-19T19:05:31.018Z,101085.44
2023-02-19T19:08:01.877Z,101094.31
2023-02-19T19:10:30.595Z,101097.50
2023-02-19T19:12:59.229Z,101056.41
2023-02-19T19:15:28.516Z,101094.16
2023-02-19T19:17:56.987Z,101090.72
2023-02-19T19:20:27.245Z,101083.75
2023-02-19T19:22:56.016Z,101077.34
2023-02-19T19:25:24.475Z,101083.47
2023-02-19T19:27:56.725Z,101053.78
2023-02-19T19:30:25.163Z,101073.09
2023-02-19T19:32:54.061Z,101088.91
2023-02-19T19:35:23.328Z,101081.09
2023-02-19T19:37:53.225Z,101091.66
2023-02-19T19:40:22.010Z,101089.03
2023-02-19T19:42:57.863Z,101080.22
2023-02-19T19:45:26.565Z,101087.25
2023-02-19T19:47:54.797Z,101071.41
2023-02-19T19:50:23.124Z,101079.34
2023-02-19T19:52:52.819Z,101078.41
2023-02-19T19:55:21.699Z,101071.44
2023-02-19T19:57:54.725Z,101066.16
2023-02-19T20:00:24.483Z,101059.22
2023-02-19T20:02:52.759Z,101050.44
2023-02-19T20:05:21.320Z,101060.13
2023-02-19T20:07:49.862Z,101069.78
2023-02-19T20:10:21.450Z,101049.59
2023-02-19T20:12:51.043Z,101031.16
2023-02-19T20:15:22.726Z,101060.91
2023-02-19T20:17:51.612Z,101057.38
2023-02-19T20:20:22.842Z,101060.59
2023-02-19T20:22:51.927Z,101045.94
2023-02-19T20:25:23.680Z,101062.56
2023-02-19T20:27:53.291Z,101045.13
2023-02-19T20:30:23.413Z,101048.63
2023-02-19T20:32:51.912Z,101058.75
2023-02-19T20:35:21.579Z,101048.31
2023-02-19T20:37:50.592Z,101043.13
2023-02-19T20:40:20.599Z,101039.59
2023-02-19T20:42:50.751Z,101038.72
2023-02-19T20:45:19.235Z,101031.03
2023-02-19T20:47:48.468Z,101022.38
2023-02-19T20:50:18.788Z,101017.13
2023-02-19T20:52:47.701Z,101023.94
2023-02-19T20:55:16.622Z,100994.25
2023-02-19T20:57:44.817Z,101006.44
2023-02-19T21:00:17.506Z,101010.75
2023-02-19T21:02:45.852Z,101031.97
2023-02-19T21:05:14.905Z,101036.31
2023-02-19T21:07:43.458Z,101034.41
2023-02-19T21:10:11.989Z,101027.63
2023-02-19T21:12:41.026Z,101022.41
2023-02-19T21:15:10.594Z,101018.97
2023-02-19T21:17:40.485Z,101015.47
2023-02-19T21:20:09.891Z,101024.09
2023-02-19T21:22:38.385Z,100987.13
2023-02-19T21:25:07.638Z,101006.38
2023-02-19T21:27:36.201Z,100979.22
2023-02-19T21:30:05.713Z,100983.66
2023-02-19T21:32:34.880Z,100992.31
2023-02-19T21:35:06.455Z,100995.16
2023-02-19T21:37:35.090Z,100987.38
2023-02-19T21:40:03.287Z,100984.66
2023-02-19T21:42:31.634Z,100966.22
2023-02-19T21:44:59.833Z,100979.47
2023-02-19T21:47:29.128Z,100991.66
2023-02-19T21:49:59.762Z,100979.38
2023-02-19T21:52:31.077Z,100967.31
2023-02-19T21:54:59.445Z,100971.00
2023-02-19T21:57:28.016Z,100987.53
2023-02-19T21:59:56.700Z,100975.25
2023-02-19T22:02:25.425Z,100967.38
2023-02-19T22:04:54.955Z,100953.53
2023-02-19T22:07:24.091Z,100954.41
2023-02-19T22:09:54.248Z,100954.25
2023-02-19T22:12:22.669Z,100956.13
2023-02-19T22:14:51.857Z,100952.50
2023-02-19T22:17:20.882Z,100957.84
2023-02-19T22:19:49.421Z,100945.53
2023-02-19T22:22:18.041Z,100942.84
2023-02-19T22:24:46.376Z,100943.81
2023-02-19T22:27:16.614Z,100909.63
2023-02-19T22:29:45.219Z,100933.25
2023-02-19T22:32:13.692Z,100921.84
2023-02-19T22:34:45.026Z,100911.41
2023-02-19T22:37:13.626Z,100919.25
2023-02-19T22:39:42.742Z,100910.47
2023-02-19T22:42:11.057Z,100892.91
2023-02-19T22:47:28.651Z,100888.78
2023-02-19T22:50:00.249Z,100868.63
2023-02-19T22:52:28.673Z,100871.25
2023-02-19T22:54:58.547Z,100859.03
2023-02-19T22:57:32.168Z,100854.66
2023-02-19T23:00:04.841Z,100821.50
2023-02-19T23:02:36.250Z,100817.94
2023-02-19T23:05:09.163Z,100793.31
2023-02-19T23:07:37.441Z,100786.25
2023-02-19T23:10:06.168Z,100796.78
2023-02-19T23:12:35.761Z,100801.34
2023-02-19T23:15:09.998Z,100788.19
2023-02-19T23:17:39.976Z,100780.28
2023-02-19T23:20:10.631Z,100781.22
2023-02-19T23:22:41.591Z,100747.03
2023-02-19T23:25:09.884Z,100729.50
2023-02-19T23:27:38.974Z,100749.84
2023-02-19T23:30:09.775Z,100746.28
2023-02-19T23:32:40.654Z,100734.03
2023-02-19T23:35:09.164Z,100734.09
2023-02-19T23:37:37.781Z,100700.88
2023-02-19T23:40:06.856Z,100699.16
2023-02-19T23:42:35.150Z,100692.19
2023-02-19T23:45:03.787Z,100693.00
2023-02-19T23:47:33.838Z,100690.38
2023-02-19T23:50:02.150Z,100685.13
2023-02-19T23:52:30.327Z,100681.63
2023-02-19T23:54:58.996Z,100672.06
2023-02-19T23:57:27.621Z,100662.41
2023-02-19T23:59:56.242Z,100641.44
